sensor_id;sensor_type;location;lat;lon;timestamp;temperature;humidity
5023;DHT22;2530;47.990;7.866;2023-01-13T00:02:00;11.60;88.80
5023;DHT22;2530;47.990;7.866;2023-01-13T00:04:26;11.60;89.20
5023;DHT22;2530;47.990;7.866;2023-01-13T00:06:51;11.60;88.80
5023;DHT22;2530;47.990;7.866;2023-01-13T00:09:17;11.70;87.10
5023;DHT22;2530;47.990;7.866;2023-01-13T00:11:42;11.70;87.30
5023;DHT22;2530;47.990;7.866;2023-01-13T00:14:08;11.70;86.60
5023;DHT22;2530;47.990;7.866;2023-01-13T00:16:33;11.80;86.30
5023;DHT22;2530;47.990;7.866;2023-01-13T00:18:59;11.80;86.00
5023;DHT22;2530;47.990;7.866;2023-01-13T00:21:24;11.80;86.20
5023;DHT22;2530;47.990;7.866;2023-01-13T00:23:51;11.70;86.40
5023;DHT22;2530;47.990;7.866;2023-01-13T00:26:21;11.70;86.50
5023;DHT22;2530;47.990;7.866;2023-01-13T00:28:47;11.70;86.60
5023;DHT22;2530;47.990;7.866;2023-01-13T00:31:19;11.70;86.30
5023;DHT22;2530;47.990;7.866;2023-01-13T00:33:45;11.70;86.10
5023;DHT22;2530;47.990;7.866;2023-01-13T00:36:15;11.70;85.30
5023;DHT22;2530;47.990;7.866;2023-01-13T00:38:41;11.80;86.10
5023;DHT22;2530;47.990;7.866;2023-01-13T00:41:18;11.80;85.10
5023;DHT22;2530;47.990;7.866;2023-01-13T00:43:45;11.70;85.70
5023;DHT22;2530;47.990;7.866;2023-01-13T00:46:13;11.70;85.80
5023;DHT22;2530;47.990;7.866;2023-01-13T00:48:38;11.70;86.00
5023;DHT22;2530;47.990;7.866;2023-01-13T00:51:07;11.70;85.50
5023;DHT22;2530;47.990;7.866;2023-01-13T00:53:36;11.70;85.90
5023;DHT22;2530;47.990;7.866;2023-01-13T00:56:05;11.70;85.90
5023;DHT22;2530;47.990;7.866;2023-01-13T00:58:32;11.70;86.30
5023;DHT22;2530;47.990;7.866;2023-01-13T01:01:06;11.60;86.90
5023;DHT22;2530;47.990;7.866;2023-01-13T01:03:32;11.60;87.20
5023;DHT22;2530;47.990;7.866;2023-01-13T01:06:04;11.60;87.50
5023;DHT22;2530;47.990;7.866;2023-01-13T01:08:30;11.60;87.60
5023;DHT22;2530;47.990;7.866;2023-01-13T01:11:07;11.60;88.00
5023;DHT22;2530;47.990;7.866;2023-01-13T01:13:34;11.60;89.10
5023;DHT22;2530;47.990;7.866;2023-01-13T01:16:09;11.60;89.80
5023;DHT22;2530;47.990;7.866;2023-01-13T01:18:37;11.60;90.50
5023;DHT22;2530;47.990;7.866;2023-01-13T01:21:04;11.60;90.70
5023;DHT22;2530;47.990;7.866;2023-01-13T01:23:31;11.60;91.40
5023;DHT22;2530;47.990;7.866;2023-01-13T01:26:00;11.60;91.90
5023;DHT22;2530;47.990;7.866;2023-01-13T01:28:26;11.60;91.90
5023;DHT22;2530;47.990;7.866;2023-01-13T01:30:52;11.60;91.50
5023;DHT22;2530;47.990;7.866;2023-01-13T01:33:20;11.60;91.70
5023;DHT22;2530;47.990;7.866;2023-01-13T01:35:45;11.50;91.90
5023;DHT22;2530;47.990;7.866;2023-01-13T01:38:11;11.60;91.60
5023;DHT22;2530;47.990;7.866;2023-01-13T01:40:36;11.50;91.80
5023;DHT22;2530;47.990;7.866;2023-01-13T01:43:04;11.50;91.60
5023;DHT22;2530;47.990;7.866;2023-01-13T01:45:51;11.60;91.90
5023;DHT22;2530;47.990;7.866;2023-01-13T01:48:17;11.60;92.30
5023;DHT22;2530;47.990;7.866;2023-01-13T01:50:43;11.50;92.80
5023;DHT22;2530;47.990;7.866;2023-01-13T01:53:14;11.50;93.30
5023;DHT22;2530;47.990;7.866;2023-01-13T01:55:40;11.50;93.20
5023;DHT22;2530;47.990;7.866;2023-01-13T01:58:14;11.40;93.50
5023;DHT22;2530;47.990;7.866;2023-01-13T02:00:42;11.40;93.80
5023;DHT22;2530;47.990;7.866;2023-01-13T02:03:08;11.40;93.90
5023;DHT22;2530;47.990;7.866;2023-01-13T02:05:34;11.40;94.30
5023;DHT22;2530;47.990;7.866;2023-01-13T02:08:00;11.40;94.50
5023;DHT22;2530;47.990;7.866;2023-01-13T02:10:28;11.40;94.40
5023;DHT22;2530;47.990;7.866;2023-01-13T02:12:57;11.40;94.40
5023;DHT22;2530;47.990;7.866;2023-01-13T02:15:29;11.40;94.50
5023;DHT22;2530;47.990;7.866;2023-01-13T02:20:51;11.40;95.50
5023;DHT22;2530;47.990;7.866;2023-01-13T02:31:41;11.30;98.10
5023;DHT22;2530;47.990;7.866;2023-01-13T02:34:16;11.20;1.00
5023;DHT22;2530;47.990;7.866;2023-01-13T02:36:52;11.20;1.00
5023;DHT22;2530;47.990;7.866;2023-01-13T02:39:23;11.20;1.00
5023;DHT22;2530;47.990;7.866;2023-01-13T02:41:51;11.20;1.00
5023;DHT22;2530;47.990;7.866;2023-01-13T02:44:45;11.20;1.00
5023;DHT22;2530;47.990;7.866;2023-01-13T02:47:20;11.20;99.90
5023;DHT22;2530;47.990;7.866;2023-01-13T02:49:50;11.20;99.90
5023;DHT22;2530;47.990;7.866;2023-01-13T02:52:27;11.20;99.90
5023;DHT22;2530;47.990;7.866;2023-01-13T02:54:57;11.20;1.00
5023;DHT22;2530;47.990;7.866;2023-01-13T02:57:25;11.10;18.90
5023;DHT22;2530;47.990;7.866;2023-01-13T02:59:53;11.10;99.90
5023;DHT22;2530;47.990;7.866;2023-01-13T03:02:20;11.10;99.90
5023;DHT22;2530;47.990;7.866;2023-01-13T03:04:55;11.10;1.00
5023;DHT22;2530;47.990;7.866;2023-01-13T03:10:09;11.10;1.00
5023;DHT22;2530;47.990;7.866;2023-01-13T03:12:54;11.00;99.90
5023;DHT22;2530;47.990;7.866;2023-01-13T03:15:52;11.00;1.00
5023;DHT22;2530;47.990;7.866;2023-01-13T03:18:49;11.00;1.00
5023;DHT22;2530;47.990;7.866;2023-01-13T03:21:27;11.00;1.00
5023;DHT22;2530;47.990;7.866;2023-01-13T03:24:06;10.90;93.70
5023;DHT22;2530;47.990;7.866;2023-01-13T03:26:45;11.00;99.90
5023;DHT22;2530;47.990;7.866;2023-01-13T03:32:02;10.90;99.90
5023;DHT22;2530;47.990;7.866;2023-01-13T03:34:33;10.90;99.90
5023;DHT22;2530;47.990;7.866;2023-01-13T03:37:03;11.00;99.90
5023;DHT22;2530;47.990;7.866;2023-01-13T03:39:33;11.00;99.90
5023;DHT22;2530;47.990;7.866;2023-01-13T03:42:06;11.00;1.00
5023;DHT22;2530;47.990;7.866;2023-01-13T03:44:44;11.00;99.90
5023;DHT22;2530;47.990;7.866;2023-01-13T03:50:14;11.00;99.90
5023;DHT22;2530;47.990;7.866;2023-01-13T03:52:46;11.00;99.90
5023;DHT22;2530;47.990;7.866;2023-01-13T03:55:26;10.90;99.90
5023;DHT22;2530;47.990;7.866;2023-01-13T03:58:10;11.00;99.90
5023;DHT22;2530;47.990;7.866;2023-01-13T04:00:52;11.00;99.90
5023;DHT22;2530;47.990;7.866;2023-01-13T04:03:48;10.90;99.90
5023;DHT22;2530;47.990;7.866;2023-01-13T04:06:34;10.90;99.90
5023;DHT22;2530;47.990;7.866;2023-01-13T04:09:11;11.00;99.90
5023;DHT22;2530;47.990;7.866;2023-01-13T04:11:42;10.90;99.90
5023;DHT22;2530;47.990;7.866;2023-01-13T04:14:10;11.00;99.90
5023;DHT22;2530;47.990;7.866;2023-01-13T04:16:37;10.90;1.00
5023;DHT22;2530;47.990;7.866;2023-01-13T04:19:03;10.90;1.00
5023;DHT22;2530;47.990;7.866;2023-01-13T04:21:29;11.00;1.00
5023;DHT22;2530;47.990;7.866;2023-01-13T04:23:54;10.90;1.00
5023;DHT22;2530;47.990;7.866;2023-01-13T04:26:20;10.90;1.00
5023;DHT22;2530;47.990;7.866;2023-01-13T04:28:47;10.90;1.00
5023;DHT22;2530;47.990;7.866;2023-01-13T04:31:13;10.80;53.30
5023;DHT22;2530;47.990;7.866;2023-01-13T04:33:38;10.80;91.00
5023;DHT22;2530;47.990;7.866;2023-01-13T04:36:04;10.80;99.90
5023;DHT22;2530;47.990;7.866;2023-01-13T04:38:30;10.80;99.90
5023;DHT22;2530;47.990;7.866;2023-01-13T04:40:55;10.80;99.90
5023;DHT22;2530;47.990;7.866;2023-01-13T04:43:21;10.70;99.90
5023;DHT22;2530;47.990;7.866;2023-01-13T04:45:46;10.70;99.90
5023;DHT22;2530;47.990;7.866;2023-01-13T04:48:12;10.80;99.90
5023;DHT22;2530;47.990;7.866;2023-01-13T04:50:38;10.70;99.90
5023;DHT22;2530;47.990;7.866;2023-01-13T04:53:04;10.70;99.90
5023;DHT22;2530;47.990;7.866;2023-01-13T04:55:30;10.70;99.90
5023;DHT22;2530;47.990;7.866;2023-01-13T04:58:01;10.70;99.90
5023;DHT22;2530;47.990;7.866;2023-01-13T05:00:26;10.70;99.90
5023;DHT22;2530;47.990;7.866;2023-01-13T05:02:52;10.60;99.90
5023;DHT22;2530;47.990;7.866;2023-01-13T05:05:18;10.60;99.90
5023;DHT22;2530;47.990;7.866;2023-01-13T05:07:44;10.60;1.00
5023;DHT22;2530;47.990;7.866;2023-01-13T05:10:10;10.60;1.00
5023;DHT22;2530;47.990;7.866;2023-01-13T05:12:35;10.60;1.00
5023;DHT22;2530;47.990;7.866;2023-01-13T05:15:20;10.50;1.00
5023;DHT22;2530;47.990;7.866;2023-01-13T05:18:04;10.60;1.00
5023;DHT22;2530;47.990;7.866;2023-01-13T05:20:29;10.60;1.00
5023;DHT22;2530;47.990;7.866;2023-01-13T05:22:55;10.50;1.00
5023;DHT22;2530;47.990;7.866;2023-01-13T05:25:40;10.60;1.00
5023;DHT22;2530;47.990;7.866;2023-01-13T05:28:07;10.60;1.00
5023;DHT22;2530;47.990;7.866;2023-01-13T05:30:39;10.60;1.00
5023;DHT22;2530;47.990;7.866;2023-01-13T05:33:13;10.60;1.00
5023;DHT22;2530;47.990;7.866;2023-01-13T05:35:40;10.60;1.00
5023;DHT22;2530;47.990;7.866;2023-01-13T05:38:06;10.60;1.00
5023;DHT22;2530;47.990;7.866;2023-01-13T05:40:32;10.60;1.00
5023;DHT22;2530;47.990;7.866;2023-01-13T05:43:19;10.60;1.00
5023;DHT22;2530;47.990;7.866;2023-01-13T05:45:47;10.60;1.00
5023;DHT22;2530;47.990;7.866;2023-01-13T05:48:13;10.50;1.00
5023;DHT22;2530;47.990;7.866;2023-01-13T05:50:39;10.50;1.00
5023;DHT22;2530;47.990;7.866;2023-01-13T05:53:04;10.50;1.00
5023;DHT22;2530;47.990;7.866;2023-01-13T05:55:30;10.40;1.00
5023;DHT22;2530;47.990;7.866;2023-01-13T05:57:56;10.50;1.00
5023;DHT22;2530;47.990;7.866;2023-01-13T06:00:22;10.50;1.00
5023;DHT22;2530;47.990;7.866;2023-01-13T06:02:47;10.50;1.00
5023;DHT22;2530;47.990;7.866;2023-01-13T06:05:13;10.50;1.00
5023;DHT22;2530;47.990;7.866;2023-01-13T06:07:39;10.50;1.00
5023;DHT22;2530;47.990;7.866;2023-01-13T06:10:05;10.50;1.00
5023;DHT22;2530;47.990;7.866;2023-01-13T06:12:30;10.50;1.00
5023;DHT22;2530;47.990;7.866;2023-01-13T06:14:56;10.60;1.00
5023;DHT22;2530;47.990;7.866;2023-01-13T06:17:21;10.60;1.00
5023;DHT22;2530;47.990;7.866;2023-01-13T06:19:47;10.50;1.00
5023;DHT22;2530;47.990;7.866;2023-01-13T06:22:16;10.60;1.00
5023;DHT22;2530;47.990;7.866;2023-01-13T06:24:44;10.60;1.00
5023;DHT22;2530;47.990;7.866;2023-01-13T06:27:11;10.60;1.00
5023;DHT22;2530;47.990;7.866;2023-01-13T06:29:37;10.60;1.00
5023;DHT22;2530;47.990;7.866;2023-01-13T06:32:05;10.60;1.00
5023;DHT22;2530;47.990;7.866;2023-01-13T06:34:33;10.60;1.00
5023;DHT22;2530;47.990;7.866;2023-01-13T06:36:59;10.60;1.00
5023;DHT22;2530;47.990;7.866;2023-01-13T06:39:26;10.60;1.00
5023;DHT22;2530;47.990;7.866;2023-01-13T06:41:55;10.50;1.00
5023;DHT22;2530;47.990;7.866;2023-01-13T06:44:40;10.60;1.00
5023;DHT22;2530;47.990;7.866;2023-01-13T06:47:06;10.60;1.00
5023;DHT22;2530;47.990;7.866;2023-01-13T06:49:32;10.60;1.00
5023;DHT22;2530;47.990;7.866;2023-01-13T06:51:57;10.50;1.00
5023;DHT22;2530;47.990;7.866;2023-01-13T06:54:23;10.50;1.00
5023;DHT22;2530;47.990;7.866;2023-01-13T06:56:48;10.50;1.00
5023;DHT22;2530;47.990;7.866;2023-01-13T06:59:14;10.60;1.30
5023;DHT22;2530;47.990;7.866;2023-01-13T07:01:39;10.60;1.00
5023;DHT22;2530;47.990;7.866;2023-01-13T07:04:05;10.60;3.20
5023;DHT22;2530;47.990;7.866;2023-01-13T07:06:30;10.60;1.00
5023;DHT22;2530;47.990;7.866;2023-01-13T07:08:56;10.60;1.00
5023;DHT22;2530;47.990;7.866;2023-01-13T07:11:22;10.60;1.00
5023;DHT22;2530;47.990;7.866;2023-01-13T07:13:48;10.70;1.00
5023;DHT22;2530;47.990;7.866;2023-01-13T07:16:32;10.60;1.00
5023;DHT22;2530;47.990;7.866;2023-01-13T07:18:57;10.70;1.00
5023;DHT22;2530;47.990;7.866;2023-01-13T07:21:23;10.70;1.00
5023;DHT22;2530;47.990;7.866;2023-01-13T07:23:48;10.70;1.00
5023;DHT22;2530;47.990;7.866;2023-01-13T07:26:15;10.70;1.00
5023;DHT22;2530;47.990;7.866;2023-01-13T07:28:41;10.70;1.00
5023;DHT22;2530;47.990;7.866;2023-01-13T07:31:18;10.70;1.00
5023;DHT22;2530;47.990;7.866;2023-01-13T07:33:45;10.70;1.00
5023;DHT22;2530;47.990;7.866;2023-01-13T07:36:11;10.70;1.00
5023;DHT22;2530;47.990;7.866;2023-01-13T07:38:37;10.70;1.00
5023;DHT22;2530;47.990;7.866;2023-01-13T07:41:05;10.70;1.00
5023;DHT22;2530;47.990;7.866;2023-01-13T07:43:50;10.70;13.20
5023;DHT22;2530;47.990;7.866;2023-01-13T07:46:16;10.70;50.80
5023;DHT22;2530;47.990;7.866;2023-01-13T07:48:42;10.60;90.10
5023;DHT22;2530;47.990;7.866;2023-01-13T07:51:09;10.60;97.10
5023;DHT22;2530;47.990;7.866;2023-01-13T07:53:35;10.60;99.90
5023;DHT22;2530;47.990;7.866;2023-01-13T07:56:02;10.50;99.90
5023;DHT22;2530;47.990;7.866;2023-01-13T07:58:28;10.30;99.90
5023;DHT22;2530;47.990;7.866;2023-01-13T08:00:54;10.10;99.90
5023;DHT22;2530;47.990;7.866;2023-01-13T08:03:20;10.00;99.90
5023;DHT22;2530;47.990;7.866;2023-01-13T08:05:46;9.70;99.90
5023;DHT22;2530;47.990;7.866;2023-01-13T08:08:12;9.60;99.90
5023;DHT22;2530;47.990;7.866;2023-01-13T08:10:38;9.50;99.90
5023;DHT22;2530;47.990;7.866;2023-01-13T08:13:11;9.30;99.90
5023;DHT22;2530;47.990;7.866;2023-01-13T08:15:46;9.30;99.90
5023;DHT22;2530;47.990;7.866;2023-01-13T08:18:12;9.30;99.90
5023;DHT22;2530;47.990;7.866;2023-01-13T08:20:38;9.30;99.90
5023;DHT22;2530;47.990;7.866;2023-01-13T08:23:03;9.30;99.90
5023;DHT22;2530;47.990;7.866;2023-01-13T08:25:29;9.30;99.90
5023;DHT22;2530;47.990;7.866;2023-01-13T08:27:55;9.30;99.90
5023;DHT22;2530;47.990;7.866;2023-01-13T08:30:21;9.40;99.90
5023;DHT22;2530;47.990;7.866;2023-01-13T08:32:47;9.40;99.90
5023;DHT22;2530;47.990;7.866;2023-01-13T08:35:14;9.40;99.90
5023;DHT22;2530;47.990;7.866;2023-01-13T08:37:40;9.40;99.90
5023;DHT22;2530;47.990;7.866;2023-01-13T08:40:07;9.40;99.90
5023;DHT22;2530;47.990;7.866;2023-01-13T08:42:33;9.50;99.90
5023;DHT22;2530;47.990;7.866;2023-01-13T08:44:58;9.50;99.90
5023;DHT22;2530;47.990;7.866;2023-01-13T08:47:26;9.60;99.90
5023;DHT22;2530;47.990;7.866;2023-01-13T08:49:51;9.60;99.90
5023;DHT22;2530;47.990;7.866;2023-01-13T08:52:17;9.70;99.90
5023;DHT22;2530;47.990;7.866;2023-01-13T08:54:43;9.80;99.90
5023;DHT22;2530;47.990;7.866;2023-01-13T08:57:08;9.80;99.90
5023;DHT22;2530;47.990;7.866;2023-01-13T08:59:34;9.90;99.90
5023;DHT22;2530;47.990;7.866;2023-01-13T09:01:59;10.00;99.90
5023;DHT22;2530;47.990;7.866;2023-01-13T09:04:26;10.10;99.90
5023;DHT22;2530;47.990;7.866;2023-01-13T09:06:53;10.10;99.90
5023;DHT22;2530;47.990;7.866;2023-01-13T09:09:20;10.10;99.90
5023;DHT22;2530;47.990;7.866;2023-01-13T09:11:48;10.20;99.90
5023;DHT22;2530;47.990;7.866;2023-01-13T09:14:35;10.30;99.90
5023;DHT22;2530;47.990;7.866;2023-01-13T09:17:01;10.30;99.90
5023;DHT22;2530;47.990;7.866;2023-01-13T09:19:27;10.40;99.90
5023;DHT22;2530;47.990;7.866;2023-01-13T09:21:54;10.40;99.90
5023;DHT22;2530;47.990;7.866;2023-01-13T09:24:20;10.40;99.90
5023;DHT22;2530;47.990;7.866;2023-01-13T09:26:46;10.40;99.90
5023;DHT22;2530;47.990;7.866;2023-01-13T09:29:11;10.40;99.90
5023;DHT22;2530;47.990;7.866;2023-01-13T09:31:37;10.40;99.90
5023;DHT22;2530;47.990;7.866;2023-01-13T09:34:04;10.40;99.90
5023;DHT22;2530;47.990;7.866;2023-01-13T09:36:49;10.50;99.90
5023;DHT22;2530;47.990;7.866;2023-01-13T09:39:15;10.40;99.90
5023;DHT22;2530;47.990;7.866;2023-01-13T09:41:47;10.50;99.90
5023;DHT22;2530;47.990;7.866;2023-01-13T09:49:53;10.40;99.90
5023;DHT22;2530;47.990;7.866;2023-01-13T09:52:23;10.40;99.90
5023;DHT22;2530;47.990;7.866;2023-01-13T09:55:10;10.30;99.90
5023;DHT22;2530;47.990;7.866;2023-01-13T09:57:38;10.30;99.90
5023;DHT22;2530;47.990;7.866;2023-01-13T10:03:28;10.30;99.90
5023;DHT22;2530;47.990;7.866;2023-01-13T10:05:40;10.30;99.90
5023;DHT22;2530;47.990;7.866;2023-01-13T10:08:11;10.20;99.90
5023;DHT22;2530;47.990;7.866;2023-01-13T10:10:49;10.20;99.90
5023;DHT22;2530;47.990;7.866;2023-01-13T10:13:29;10.20;99.90
5023;DHT22;2530;47.990;7.866;2023-01-13T10:19:08;10.10;99.90
5023;DHT22;2530;47.990;7.866;2023-01-13T10:27:22;10.30;99.90
5023;DHT22;2530;47.990;7.866;2023-01-13T10:29:50;10.50;86.30
5023;DHT22;2530;47.990;7.866;2023-01-13T10:32:16;10.50;55.40
5023;DHT22;2530;47.990;7.866;2023-01-13T10:34:45;10.50;87.50
5023;DHT22;2530;47.990;7.866;2023-01-13T10:37:21;10.60;53.40
5023;DHT22;2530;47.990;7.866;2023-01-13T10:39:47;10.60;19.60
5023;DHT22;2530;47.990;7.866;2023-01-13T10:44:59;10.60;12.80
5023;DHT22;2530;47.990;7.866;2023-01-13T10:50:19;10.70;99.90
5023;DHT22;2530;47.990;7.866;2023-01-13T10:53:00;10.80;1.00
5023;DHT22;2530;47.990;7.866;2023-01-13T10:55:33;10.90;1.00
5023;DHT22;2530;47.990;7.866;2023-01-13T10:58:12;11.00;99.90
5023;DHT22;2530;47.990;7.866;2023-01-13T11:00:38;11.10;99.90
5023;DHT22;2530;47.990;7.866;2023-01-13T11:03:23;11.40;99.90
5023;DHT22;2530;47.990;7.866;2023-01-13T11:08:22;11.50;99.90
5023;DHT22;2530;47.990;7.866;2023-01-13T11:10:51;11.50;99.90
5023;DHT22;2530;47.990;7.866;2023-01-13T11:13:31;11.40;99.90
5023;DHT22;2530;47.990;7.866;2023-01-13T11:16:13;11.50;99.90
5023;DHT22;2530;47.990;7.866;2023-01-13T11:18:47;11.60;99.90
5023;DHT22;2530;47.990;7.866;2023-01-13T11:24:33;11.70;99.90
5023;DHT22;2530;47.990;7.866;2023-01-13T11:35:22;13.30;97.20
5023;DHT22;2530;47.990;7.866;2023-01-13T11:37:57;13.30;95.50
5023;DHT22;2530;47.990;7.866;2023-01-13T11:40:45;13.00;98.60
5023;DHT22;2530;47.990;7.866;2023-01-13T11:43:48;12.90;99.90
5023;DHT22;2530;47.990;7.866;2023-01-13T11:46:07;12.30;99.90
5023;DHT22;2530;47.990;7.866;2023-01-13T11:48:38;11.90;1.00
5023;DHT22;2530;47.990;7.866;2023-01-13T11:56:56;11.30;1.00
5023;DHT22;2530;47.990;7.866;2023-01-13T12:05:41;11.30;99.90
5023;DHT22;2530;47.990;7.866;2023-01-13T12:08:08;11.20;99.90
5023;DHT22;2530;47.990;7.866;2023-01-13T12:21:37;11.30;99.90
5023;DHT22;2530;47.990;7.866;2023-01-13T12:24:28;11.90;99.90
5023;DHT22;2530;47.990;7.866;2023-01-13T12:26:58;13.00;94.10
5023;DHT22;2530;47.990;7.866;2023-01-13T12:29:36;13.20;90.50
5023;DHT22;2530;47.990;7.866;2023-01-13T12:32:05;13.20;90.30
5023;DHT22;2530;47.990;7.866;2023-01-13T12:34:49;12.80;89.40
5023;DHT22;2530;47.990;7.866;2023-01-13T12:37:26;12.90;90.40
5023;DHT22;2530;47.990;7.866;2023-01-13T12:43:10;13.30;85.00
5023;DHT22;2530;47.990;7.866;2023-01-13T12:51:24;11.40;95.80
5023;DHT22;2530;47.990;7.866;2023-01-13T12:53:50;11.40;96.30
5023;DHT22;2530;47.990;7.866;2023-01-13T13:01:50;10.70;99.90
5023;DHT22;2530;47.990;7.866;2023-01-13T13:04:18;10.60;1.00
5023;DHT22;2530;47.990;7.866;2023-01-13T13:06:54;10.40;1.00
5023;DHT22;2530;47.990;7.866;2023-01-13T13:09:31;10.10;13.50
5023;DHT22;2530;47.990;7.866;2023-01-13T13:11:58;9.90;99.90
5023;DHT22;2530;47.990;7.866;2023-01-13T13:15:12;9.70;99.90
5023;DHT22;2530;47.990;7.866;2023-01-13T13:17:44;9.00;99.90
5023;DHT22;2530;47.990;7.866;2023-01-13T13:23:34;8.60;99.90
5023;DHT22;2530;47.990;7.866;2023-01-13T13:29:27;8.60;99.90
5023;DHT22;2530;47.990;7.866;2023-01-13T13:32:22;8.70;99.90
5023;DHT22;2530;47.990;7.866;2023-01-13T13:34:54;8.70;99.90
5023;DHT22;2530;47.990;7.866;2023-01-13T13:37:45;8.70;99.90
5023;DHT22;2530;47.990;7.866;2023-01-13T13:40:37;8.80;99.90
5023;DHT22;2530;47.990;7.866;2023-01-13T13:43:22;8.80;99.90
5023;DHT22;2530;47.990;7.866;2023-01-13T13:46:26;9.00;99.90
5023;DHT22;2530;47.990;7.866;2023-01-13T13:49:10;9.10;99.90
5023;DHT22;2530;47.990;7.866;2023-01-13T13:51:42;9.10;99.90
5023;DHT22;2530;47.990;7.866;2023-01-13T13:54:18;9.20;99.90
5023;DHT22;2530;47.990;7.866;2023-01-13T13:56:45;9.10;99.90
5023;DHT22;2530;47.990;7.866;2023-01-13T13:59:15;9.00;99.90
5023;DHT22;2530;47.990;7.866;2023-01-13T14:01:43;8.90;99.90
5023;DHT22;2530;47.990;7.866;2023-01-13T14:04:21;9.00;99.90
5023;DHT22;2530;47.990;7.866;2023-01-13T14:07:22;9.10;99.90
5023;DHT22;2530;47.990;7.866;2023-01-13T14:09:52;9.20;99.90
5023;DHT22;2530;47.990;7.866;2023-01-13T14:12:24;9.10;99.90
5023;DHT22;2530;47.990;7.866;2023-01-13T14:14:51;9.00;99.90
5023;DHT22;2530;47.990;7.866;2023-01-13T14:17:25;9.10;99.90
5023;DHT22;2530;47.990;7.866;2023-01-13T14:20:00;9.10;99.90
5023;DHT22;2530;47.990;7.866;2023-01-13T14:22:30;9.00;99.90
5023;DHT22;2530;47.990;7.866;2023-01-13T14:24:55;8.90;99.90
5023;DHT22;2530;47.990;7.866;2023-01-13T14:27:27;8.90;99.90
5023;DHT22;2530;47.990;7.866;2023-01-13T14:29:58;8.80;47.10
5023;DHT22;2530;47.990;7.866;2023-01-13T14:32:30;8.80;99.90
5023;DHT22;2530;47.990;7.866;2023-01-13T14:34:56;8.70;13.60
5023;DHT22;2530;47.990;7.866;2023-01-13T14:37:36;8.80;1.00
5023;DHT22;2530;47.990;7.866;2023-01-13T14:40:03;8.70;1.00
5023;DHT22;2530;47.990;7.866;2023-01-13T14:42:29;8.80;11.30
5023;DHT22;2530;47.990;7.866;2023-01-13T14:44:56;8.80;1.00
5023;DHT22;2530;47.990;7.866;2023-01-13T14:47:28;8.80;1.00
5023;DHT22;2530;47.990;7.866;2023-01-13T14:52:46;8.80;1.00
5023;DHT22;2530;47.990;7.866;2023-01-13T14:55:18;8.90;1.00
5023;DHT22;2530;47.990;7.866;2023-01-13T14:57:45;9.00;1.00
5023;DHT22;2530;47.990;7.866;2023-01-13T15:07:54;9.20;1.00
5023;DHT22;2530;47.990;7.866;2023-01-13T15:13:15;9.20;1.00
5023;DHT22;2530;47.990;7.866;2023-01-13T15:15:49;9.10;1.00
5023;DHT22;2530;47.990;7.866;2023-01-13T15:18:15;9.00;1.00
5023;DHT22;2530;47.990;7.866;2023-01-13T15:20:41;9.00;1.00
5023;DHT22;2530;47.990;7.866;2023-01-13T15:23:08;8.90;1.00
5023;DHT22;2530;47.990;7.866;2023-01-13T15:25:36;9.00;1.00
5023;DHT22;2530;47.990;7.866;2023-01-13T15:28:03;8.90;1.00
5023;DHT22;2530;47.990;7.866;2023-01-13T15:30:30;8.80;1.00
5023;DHT22;2530;47.990;7.866;2023-01-13T15:32:57;8.90;1.00
5023;DHT22;2530;47.990;7.866;2023-01-13T15:35:25;8.80;1.00
5023;DHT22;2530;47.990;7.866;2023-01-13T15:37:51;8.80;1.00
5023;DHT22;2530;47.990;7.866;2023-01-13T15:40:23;8.80;1.00
5023;DHT22;2530;47.990;7.866;2023-01-13T15:42:48;8.70;1.00
5023;DHT22;2530;47.990;7.866;2023-01-13T15:45:34;8.60;1.00
5023;DHT22;2530;47.990;7.866;2023-01-13T15:48:20;8.70;1.00
5023;DHT22;2530;47.990;7.866;2023-01-13T15:50:46;8.70;1.00
5023;DHT22;2530;47.990;7.866;2023-01-13T15:53:12;8.70;1.00
5023;DHT22;2530;47.990;7.866;2023-01-13T15:55:38;8.60;1.00
5023;DHT22;2530;47.990;7.866;2023-01-13T15:58:04;8.60;1.00
5023;DHT22;2530;47.990;7.866;2023-01-13T16:00:33;8.70;1.00
5023;DHT22;2530;47.990;7.866;2023-01-13T16:02:59;8.60;1.00
5023;DHT22;2530;47.990;7.866;2023-01-13T16:05:24;8.60;1.00
5023;DHT22;2530;47.990;7.866;2023-01-13T16:07:50;8.60;1.00
5023;DHT22;2530;47.990;7.866;2023-01-13T16:10:19;8.60;1.00
5023;DHT22;2530;47.990;7.866;2023-01-13T16:12:45;8.60;1.00
5023;DHT22;2530;47.990;7.866;2023-01-13T16:15:14;8.60;1.00
5023;DHT22;2530;47.990;7.866;2023-01-13T16:17:44;8.60;1.00
5023;DHT22;2530;47.990;7.866;2023-01-13T16:20:17;8.60;1.00
5023;DHT22;2530;47.990;7.866;2023-01-13T16:22:43;8.70;19.40
5023;DHT22;2530;47.990;7.866;2023-01-13T16:25:41;8.70;23.10
5023;DHT22;2530;47.990;7.866;2023-01-13T16:33:48;8.70;84.20
5023;DHT22;2530;47.990;7.866;2023-01-13T16:36:15;8.70;90.50
5023;DHT22;2530;47.990;7.866;2023-01-13T16:38:41;8.70;40.60
5023;DHT22;2530;47.990;7.866;2023-01-13T16:41:07;8.80;50.50
5023;DHT22;2530;47.990;7.866;2023-01-13T16:43:33;8.80;1.00
5023;DHT22;2530;47.990;7.866;2023-01-13T16:45:59;8.80;1.00
5023;DHT22;2530;47.990;7.866;2023-01-13T16:48:25;8.80;1.00
5023;DHT22;2530;47.990;7.866;2023-01-13T16:50:52;8.80;1.00
5023;DHT22;2530;47.990;7.866;2023-01-13T16:53:17;8.90;1.00
5023;DHT22;2530;47.990;7.866;2023-01-13T16:55:43;8.90;1.00
5023;DHT22;2530;47.990;7.866;2023-01-13T16:58:18;8.90;1.00
5023;DHT22;2530;47.990;7.866;2023-01-13T17:00:45;8.90;1.00
5023;DHT22;2530;47.990;7.866;2023-01-13T17:03:15;8.90;1.00
5023;DHT22;2530;47.990;7.866;2023-01-13T17:05:44;8.90;1.00
5023;DHT22;2530;47.990;7.866;2023-01-13T17:08:12;8.90;1.00
5023;DHT22;2530;47.990;7.866;2023-01-13T17:10:45;8.90;91.70
5023;DHT22;2530;47.990;7.866;2023-01-13T17:13:11;8.70;99.90
5023;DHT22;2530;47.990;7.866;2023-01-13T17:15:36;8.50;99.90
5023;DHT22;2530;47.990;7.866;2023-01-13T17:18:02;8.30;99.90
5023;DHT22;2530;47.990;7.866;2023-01-13T17:20:28;8.20;99.90
5023;DHT22;2530;47.990;7.866;2023-01-13T17:22:54;8.10;99.90
5023;DHT22;2530;47.990;7.866;2023-01-13T17:25:19;7.90;99.90
5023;DHT22;2530;47.990;7.866;2023-01-13T17:27:45;7.80;99.90
5023;DHT22;2530;47.990;7.866;2023-01-13T17:30:11;7.70;99.90
5023;DHT22;2530;47.990;7.866;2023-01-13T17:32:39;7.80;99.90
5023;DHT22;2530;47.990;7.866;2023-01-13T17:35:05;7.80;99.90
5023;DHT22;2530;47.990;7.866;2023-01-13T17:37:32;7.90;99.90
5023;DHT22;2530;47.990;7.866;2023-01-13T17:39:58;7.80;99.90
5023;DHT22;2530;47.990;7.866;2023-01-13T17:42:24;7.70;99.90
5023;DHT22;2530;47.990;7.866;2023-01-13T17:44:52;7.70;99.90
5023;DHT22;2530;47.990;7.866;2023-01-13T17:47:18;7.70;99.90
5023;DHT22;2530;47.990;7.866;2023-01-13T17:49:44;7.70;99.90
5023;DHT22;2530;47.990;7.866;2023-01-13T17:52:09;7.80;99.90
5023;DHT22;2530;47.990;7.866;2023-01-13T17:54:35;7.70;99.90
5023;DHT22;2530;47.990;7.866;2023-01-13T17:57:00;7.70;99.90
5023;DHT22;2530;47.990;7.866;2023-01-13T17:59:28;7.70;99.90
5023;DHT22;2530;47.990;7.866;2023-01-13T18:01:54;7.60;99.90
5023;DHT22;2530;47.990;7.866;2023-01-13T18:04:22;7.70;99.90
5023;DHT22;2530;47.990;7.866;2023-01-13T18:06:48;7.70;99.90
5023;DHT22;2530;47.990;7.866;2023-01-13T18:09:15;7.60;99.90
5023;DHT22;2530;47.990;7.866;2023-01-13T18:11:51;7.50;99.90
5023;DHT22;2530;47.990;7.866;2023-01-13T18:14:17;7.50;99.90
5023;DHT22;2530;47.990;7.866;2023-01-13T18:16:43;7.50;99.90
5023;DHT22;2530;47.990;7.866;2023-01-13T18:19:09;7.50;99.90
5023;DHT22;2530;47.990;7.866;2023-01-13T18:21:53;7.50;99.90
5023;DHT22;2530;47.990;7.866;2023-01-13T18:24:37;7.40;99.90
5023;DHT22;2530;47.990;7.866;2023-01-13T18:27:27;7.30;99.90
5023;DHT22;2530;47.990;7.866;2023-01-13T18:29:56;7.40;99.90
5023;DHT22;2530;47.990;7.866;2023-01-13T18:32:23;7.40;99.90